Time;durP1;ratioP1;P1;durP2;ratioP2;P2;SDS_P1;SDS_P2;PMS_P1;PMS_P2;Temp;Humidity;BMP_temperature;BMP_pressure;BME280_temperature;BME280_humidity;BME280_pressure;Samples;Min_cycle;Max_cycle;Signal;HPM_P1;HPM_P2
2022/11/27 00:01:19;;;;;;;5.20;4.07;;;;;;;2.94;nan;-23898.28;5032105;28;20309;-78
2022/11/27 00:03:45;;;;;;;8.23;4.80;;;;;;;3.59;nan;-23916.53;5032769;28;20176;-79
2022/11/27 00:06:16;;;;;;;7.87;4.10;;;;;;;3.59;nan;-23916.41;5032800;28;20172;-79
2022/11/27 00:08:43;;;;;;;6.40;4.20;;;;;;;3.84;nan;-23923.53;5032701;28;20209;-77
2022/11/27 00:11:11;;;;;;;7.30;4.90;;;;;;;3.50;nan;-23914.13;5032939;28;20649;-77
2022/11/27 00:13:37;;;;;;;11.43;4.20;;;;;;;3.78;nan;-23921.81;5032483;28;20218;-78
2022/11/27 00:16:05;;;;;;;5.30;4.27;;;;;;;3.86;nan;-23924.25;5032949;28;20183;-79
2022/11/27 00:18:31;;;;;;;7.67;3.87;;;;;;;3.68;nan;-23919.09;5032373;28;20266;-79
2022/11/27 00:21:05;;;;;;;7.60;4.13;;;;;;;3.97;nan;-23927.22;5036157;28;20238;-79
2022/11/27 00:23:32;;;;;;;6.27;4.63;;;;;;;3.95;nan;-23926.81;5025730;28;20662;-78
2022/11/27 00:25:57;;;;;;;6.00;4.33;;;;;;;4.11;nan;-23931.22;5025066;28;20674;-79
2022/11/27 00:28:23;;;;;;;14.03;5.53;;;;;;;4.00;nan;-23928.09;5032210;28;20172;-78
2022/11/27 00:30:48;;;;;;;6.50;5.10;;;;;;;0.56;nan;-23830.84;5031724;28;20554;-78
2022/11/27 00:33:14;;;;;;;7.57;4.60;;;;;;;3.95;nan;-23926.81;5032138;28;20180;-78
2022/11/27 00:35:39;;;;;;;9.37;4.80;;;;;;;3.79;nan;-23922.09;5032253;28;20182;-79
2022/11/27 00:38:05;;;;;;;8.27;4.90;;;;;;;3.98;nan;-23927.50;5033689;28;20218;-78
2022/11/27 00:40:30;;;;;;;6.83;4.53;;;;;;;4.14;nan;-23931.94;5031951;28;20175;-79
2022/11/27 00:42:56;;;;;;;9.47;5.20;;;;;;;3.93;nan;-23926.09;5031790;28;20562;-77
2022/11/27 00:45:22;;;;;;;8.63;5.20;;;;;;;3.77;nan;-23921.53;5031877;28;20222;-79
2022/11/27 00:47:47;;;;;;;10.80;5.07;;;;;;;3.93;nan;-23926.22;5032257;28;20168;-79
2022/11/27 00:50:13;;;;;;;10.10;4.97;;;;;;;4.12;nan;-23931.50;5031472;28;20183;-78
2022/11/27 00:52:39;;;;;;;9.47;4.47;;;;;;;4.26;nan;-23935.34;5031333;28;20183;-80
2022/11/27 00:55:05;;;;;;;5.93;4.60;;;;;;;3.94;nan;-23926.38;5031568;28;20574;-77
2022/11/27 00:57:30;;;;;;;12.70;6.03;;;;;;;4.24;nan;-23934.78;5033731;28;20195;-78
2022/11/27 00:59:55;;;;;;;8.83;5.77;;;;;;;4.15;nan;-23932.34;5031639;28;20651;-77
2022/11/27 01:02:21;;;;;;;8.80;5.27;;;;;;;4.23;nan;-23934.50;5031282;28;20733;-78
2022/11/27 01:04:47;;;;;;;8.80;5.23;;;;;;;4.31;nan;-23936.91;5031643;28;20191;-78
2022/11/27 01:07:13;;;;;;;16.67;6.57;;;;;;;4.11;nan;-23931.06;5032637;28;20190;-78
2022/11/27 01:09:39;;;;;;;10.83;5.30;;;;;;;4.09;nan;-23930.66;5033101;28;20543;-78
2022/11/27 01:12:05;;;;;;;11.73;6.20;;;;;;;4.07;nan;-23930.06;5031268;28;20547;-78
2022/11/27 01:14:30;;;;;;;12.57;6.23;;;;;;;3.78;nan;-23921.97;5033056;28;20202;-78
2022/11/27 01:16:56;;;;;;;9.87;6.17;;;;;;;4.21;nan;-23934.06;5031154;28;20190;-78
2022/11/27 01:19:21;;;;;;;7.87;5.53;;;;;;;4.26;nan;-23935.50;5031421;28;20179;-78
2022/11/27 01:21:47;;;;;;;7.37;5.43;;;;;;;0.05;nan;-23816.41;5031413;28;20175;-77
2022/11/27 01:24:13;;;;;;;12.43;5.90;;;;;;;4.31;nan;-23936.91;5031055;28;20182;-78
2022/11/27 01:26:39;;;;;;;13.67;5.57;;;;;;;4.14;nan;-23932.06;5032107;28;20189;-77
2022/11/27 01:29:05;;;;;;;13.77;6.03;;;;;;;4.06;nan;-23929.78;5031195;28;20544;-78
2022/11/27 01:31:32;;;;;;;8.47;5.33;;;;;;;3.58;nan;-23916.25;5031133;28;20217;-79
2022/11/27 01:34:00;;;;;;;16.47;6.77;;;;;;;4.34;nan;-23937.63;5030941;28;20626;-78
2022/11/27 01:36:26;;;;;;;9.43;5.77;;;;;;;4.07;nan;-23930.06;5032293;28;20176;-77
2022/11/27 01:38:52;;;;;;;14.87;5.70;;;;;;;4.38;nan;-23938.91;5030623;28;20669;-79
2022/11/27 01:41:26;;;;;;;10.27;5.83;;;;;;;4.19;nan;-23933.34;5031438;28;20590;-79
2022/11/27 01:43:54;;;;;;;14.27;6.20;;;;;;;4.13;nan;-23931.78;5030934;28;20183;-79
2022/11/27 01:46:40;;;;;;;14.63;6.20;;;;;;;4.18;nan;-23933.22;5032411;28;20649;-78
2022/11/27 01:49:08;;;;;;;9.43;5.47;;;;;;;4.02;nan;-23928.66;5030423;28;20630;-79
2022/11/27 01:51:40;;;;;;;12.93;5.63;;;;;;;4.21;nan;-23934.06;5030980;28;20198;-78
2022/11/27 01:54:08;;;;;;;9.00;6.27;;;;;;;4.20;nan;-23933.78;5031670;28;20243;-77
2022/11/27 01:56:34;;;;;;;12.67;5.70;;;;;;;3.99;nan;-23927.94;5031241;28;20211;-77
2022/11/27 01:59:02;;;;;;;11.17;6.30;;;;;;;4.07;nan;-23930.06;5031316;28;20597;-80
2022/11/27 02:01:27;;;;;;;10.90;6.70;;;;;;;4.15;nan;-23932.22;5030581;28;20694;-78
2022/11/27 02:03:56;;;;;;;11.03;6.53;;;;;;;4.08;nan;-23930.22;5031203;28;20175;-78
2022/11/27 02:06:23;;;;;;;10.07;4.93;;;;;;;4.16;nan;-23932.63;5032051;28;20179;-78
2022/11/27 02:08:49;;;;;;;11.17;6.23;;;;;;;3.95;nan;-23926.81;5030962;28;20179;-79
2022/11/27 02:11:23;;;;;;;13.13;6.43;;;;;;;3.67;nan;-23918.69;5030539;28;20183;-78
2022/11/27 02:14:14;;;;;;;13.00;6.57;;;;;;;4.06;nan;-23929.66;5031509;28;20276;-79
2022/11/27 02:17:02;;;;;;;11.50;6.10;;;;;;;3.80;nan;-23922.38;5029901;28;20172;-77
2022/11/27 02:20:05;;;;;;;7.10;5.60;;;;;;;3.83;nan;-23923.25;5030249;28;20183;-78
2022/11/27 02:22:44;;;;;;;9.80;5.80;;;;;;;3.66;nan;-23918.41;5033868;28;20270;-78
2022/11/27 02:25:25;;;;;;;8.87;5.37;;;;;;;3.97;nan;-23927.22;5030212;28;20261;-77
2022/11/27 02:28:15;;;;;;;10.77;5.37;;;;;;;3.59;nan;-23916.41;5031376;28;20211;-78
2022/11/27 02:30:49;;;;;;;8.47;5.43;;;;;;;3.59;nan;-23916.53;5029983;28;20274;-77
2022/11/27 02:33:19;;;;;;;8.43;4.60;;;;;;;3.50;nan;-23913.97;5030092;28;20494;-78
2022/11/27 02:35:59;;;;;;;7.80;5.63;;;;;;;3.25;nan;-23906.84;5030386;28;20528;-79
2022/11/27 02:38:31;;;;;;;6.13;4.63;;;;;;;3.23;nan;-23906.28;5029971;28;20159;-78
2022/11/27 02:41:14;;;;;;;11.17;5.60;;;;;;;3.49;nan;-23913.84;5031022;28;20168;-79
2022/11/27 02:43:44;;;;;;;5.60;4.53;;;;;;;3.19;nan;-23905.28;5031907;28;20175;-78
2022/11/27 02:46:12;;;;;;;7.97;4.87;;;;;;;3.25;nan;-23907.00;5030532;28;20186;-79
2022/11/27 02:48:43;;;;;;;8.30;4.57;;;;;;;3.38;nan;-23910.69;5031276;28;20644;-77
2022/11/27 02:51:12;;;;;;;11.00;4.87;;;;;;;3.53;nan;-23914.97;5031941;28;20700;-78
2022/11/27 02:54:01;;;;;;;11.17;6.77;;;;;;;3.61;nan;-23916.97;5031314;28;20195;-79
2022/11/27 02:56:30;;;;;;;8.37;5.07;;;;;;;3.80;nan;-23922.53;5029649;28;20187;-78
2022/11/27 02:59:03;;;;;;;9.00;5.30;;;;;;;3.54;nan;-23915.25;5031405;28;20175;-79
2022/11/27 03:01:33;;;;;;;9.50;4.33;;;;;;;3.59;nan;-23916.53;5030246;28;20242;-78
2022/11/27 03:04:05;;;;;;;10.00;5.70;;;;;;;3.67;nan;-23918.69;5030075;28;20175;-78
2022/11/27 03:06:36;;;;;;;11.47;5.37;;;;;;;3.72;nan;-23920.25;5031223;28;20167;-79
2022/11/27 03:09:07;;;;;;;11.33;5.37;;;;;;;3.77;nan;-23921.69;5030143;28;20179;-78
2022/11/27 03:11:33;;;;;;;6.87;4.87;;;;;;;3.80;nan;-23922.38;5030758;28;20245;-78
2022/11/27 03:14:04;;;;;;;8.37;5.27;;;;;;;3.81;nan;-23922.66;5030082;28;20223;-79
2022/11/27 03:16:42;;;;;;;8.33;4.97;;;;;;;3.77;nan;-23921.69;5031840;28;20267;-79
2022/11/27 03:19:18;;;;;;;9.33;5.57;;;;;;;3.81;nan;-23922.81;5029970;28;20171;-79
2022/11/27 03:21:57;;;;;;;9.07;4.63;;;;;;;3.89;nan;-23924.94;5031505;28;20586;-79
2022/11/27 03:24:23;;;;;;;11.57;4.60;;;;;;;3.90;nan;-23925.38;5029981;28;20167;-79
2022/11/27 03:26:49;;;;;;;8.37;5.33;;;;;;;3.93;nan;-23926.22;5029943;28;20266;-79
2022/11/27 03:29:38;;;;;;;11.23;5.27;;;;;;;4.06;nan;-23929.78;5032015;28;20663;-78
2022/11/27 03:32:04;;;;;;;11.20;6.03;;;;;;;3.88;nan;-23924.66;5033451;28;20164;-77
2022/11/27 03:34:31;;;;;;;9.07;5.33;;;;;;;3.95;nan;-23926.66;5034301;28;20583;-78
2022/11/27 03:36:56;;;;;;;7.20;4.07;;;;;;;4.12;nan;-23931.50;5033513;28;20172;-79
2022/11/27 03:39:23;;;;;;;9.23;6.07;;;;;;;4.19;nan;-23933.50;5033252;28;20269;-77
2022/11/27 03:42:19;;;;;;;6.97;5.10;;;;;;;4.15;nan;-23932.22;5032965;28;20179;-78
2022/11/27 03:45:13;;;;;;;6.17;4.07;;;;;;;4.13;nan;-23931.78;5033101;28;20179;-78
2022/11/27 03:47:54;;;;;;;10.53;5.67;;;;;;;4.10;nan;-23930.94;5032898;28;20182;-79
2022/11/27 03:50:50;;;;;;;6.27;4.17;;;;;;;4.23;nan;-23934.50;5032614;28;20229;-77
2022/11/27 03:53:37;;;;;;;7.37;5.10;;;;;;;4.22;nan;-23934.22;5032934;28;20634;-79
2022/11/27 03:56:20;;;;;;;4.60;3.50;;;;;;;3.94;nan;-23926.38;5033533;28;20206;-78
2022/11/27 03:58:49;;;;;;;7.20;4.23;;;;;;;4.06;nan;-23929.78;5033586;28;20163;-78
2022/11/27 04:01:18;;;;;;;5.90;4.20;;;;;;;4.07;nan;-23929.94;5033880;28;20204;-81
2022/11/27 04:03:43;;;;;;;9.60;4.60;;;;;;;4.09;nan;-23930.50;5033174;28;20183;-79
2022/11/27 04:06:10;;;;;;;5.00;3.90;;;;;;;3.99;nan;-23927.94;5034697;28;20631;-80
2022/11/27 04:08:36;;;;;;;6.43;4.43;;;;;;;3.86;nan;-23924.25;5032791;28;20273;-79
2022/11/27 04:11:01;;;;;;;7.37;4.73;;;;;;;3.94;nan;-23926.38;5032554;28;20664;-79
2022/11/27 04:13:27;;;;;;;6.67;4.27;;;;;;;3.98;nan;-23927.66;5032359;28;20207;-79
2022/11/27 04:15:52;;;;;;;8.17;5.20;;;;;;;3.82;nan;-23923.09;5031750;28;20194;-80
2022/11/27 04:18:18;;;;;;;7.23;4.33;;;;;;;3.87;nan;-23924.38;5032224;28;20536;-79
2022/11/27 04:20:43;;;;;;;5.83;3.47;;;;;;;3.87;nan;-23924.53;5032103;28;20457;-79
2022/11/27 04:23:09;;;;;;;7.30;4.10;;;;;;;3.78;nan;-23921.81;5032350;28;20185;-77
2022/11/27 04:25:35;;;;;;;8.30;4.73;;;;;;;3.58;nan;-23916.13;5031809;28;20188;-77
2022/11/27 04:28:00;;;;;;;8.17;4.73;;;;;;;3.75;nan;-23920.97;5032780;28;20180;-80
2022/11/27 04:30:26;;;;;;;4.80;4.07;;;;;;;3.73;nan;-23920.53;5032410;28;20174;-79
2022/11/27 04:32:51;;;;;;;6.17;3.97;;;;;;;3.67;nan;-23918.69;5031895;28;20630;-79
2022/11/27 04:35:17;;;;;;;8.53;5.30;;;;;;;3.67;nan;-23918.81;5032476;28;20633;-78
2022/11/27 04:37:42;;;;;;;8.90;4.03;;;;;;;3.77;nan;-23921.53;5032159;28;20266;-80
2022/11/27 04:40:08;;;;;;;4.90;3.70;;;;;;;3.36;nan;-23910.13;5031684;28;20211;-78
2022/11/27 04:42:34;;;;;;;8.17;5.70;;;;;;;3.44;nan;-23912.41;5033644;28;20232;-78
2022/11/27 04:44:59;;;;;;;6.70;4.37;;;;;;;3.66;nan;-23918.41;5033077;28;20184;-79
2022/11/27 04:47:25;;;;;;;4.60;2.87;;;;;;;3.44;nan;-23912.41;5033389;28;20249;-78
2022/11/27 04:49:50;;;;;;;5.70;4.67;;;;;;;3.60;nan;-23916.69;5033159;28;20167;-79
2022/11/27 04:52:16;;;;;;;7.00;4.93;;;;;;;3.64;nan;-23917.81;5032042;28;20274;-80
2022/11/27 04:54:41;;;;;;;5.33;3.90;;;;;;;3.46;nan;-23912.97;5033343;28;20195;-79
2022/11/27 04:57:08;;;;;;;7.70;3.70;;;;;;;3.65;nan;-23918.13;5032098;28;20182;-78
2022/11/27 04:59:33;;;;;;;8.93;4.10;;;;;;;3.71;nan;-23919.81;5033540;28;20186;-79
2022/11/27 05:01:59;;;;;;;7.37;4.17;;;;;;;0.54;nan;-23830.28;5031919;28;20227;-79
2022/11/27 05:04:24;;;;;;;5.27;3.53;;;;;;;3.51;nan;-23914.25;5033401;28;20583;-78
2022/11/27 05:06:50;;;;;;;4.87;3.10;;;;;;;3.49;nan;-23913.84;5031873;28;20183;-79
2022/11/27 05:09:18;;;;;;;4.73;3.40;;;;;;;3.24;nan;-23906.72;5031709;28;20233;-80
2022/11/27 05:11:45;;;;;;;8.40;4.43;;;;;;;3.53;nan;-23914.97;5032992;28;20226;-78
2022/11/27 05:14:21;;;;;;;6.23;4.80;;;;;;;3.38;nan;-23910.69;5030540;28;20203;-80
2022/11/27 05:16:52;;;;;;;4.67;3.50;;;;;;;3.47;nan;-23913.13;5031830;28;20170;-80
2022/11/27 05:19:19;;;;;;;7.93;4.57;;;;;;;3.47;nan;-23913.25;5032323;28;20163;-80
2022/11/27 05:21:46;;;;;;;6.03;4.23;;;;;;;3.54;nan;-23915.25;5031346;28;20236;-78
2022/11/27 05:24:12;;;;;;;9.03;4.03;;;;;;;3.19;nan;-23905.28;5031545;28;20270;-80
2022/11/27 05:26:39;;;;;;;14.13;4.87;;;;;;;3.47;nan;-23913.25;5031307;28;20604;-80
2022/11/27 05:29:05;;;;;;;9.03;4.50;;;;;;;3.49;nan;-23913.84;5031342;28;20179;-79
2022/11/27 05:31:31;;;;;;;7.47;3.93;;;;;;;3.30;nan;-23908.28;5033036;28;20626;-78
2022/11/27 05:33:56;;;;;;;7.07;4.37;;;;;;;3.64;nan;-23917.81;5031115;28;20187;-78
2022/11/27 05:36:22;;;;;;;7.97;4.43;;;;;;;3.72;nan;-23920.25;5030925;28;20175;-79
2022/11/27 05:38:48;;;;;;;5.10;2.93;;;;;;;3.18;nan;-23905.00;5030962;28;20179;-79
2022/11/27 05:41:13;;;;;;;6.43;4.20;;;;;;;3.41;nan;-23911.41;5029783;28;20556;-78
2022/11/27 05:43:39;;;;;;;7.40;4.93;;;;;;;3.54;nan;-23915.25;5032202;28;20652;-79
2022/11/27 05:46:05;;;;;;;6.57;4.40;;;;;;;3.67;nan;-23918.69;5031800;28;20195;-79
2022/11/27 05:48:32;;;;;;;8.97;4.53;;;;;;;3.74;nan;-23920.69;5030789;28;20180;-79
2022/11/27 05:50:58;;;;;;;12.67;5.40;;;;;;;3.66;nan;-23918.41;5029865;28;20262;-78
2022/11/27 05:53:23;;;;;;;6.53;4.53;;;;;;;3.95;nan;-23926.66;5030302;28;20273;-79
2022/11/27 05:55:49;;;;;;;5.97;3.40;;;;;;;3.88;nan;-23924.66;5030591;28;20179;-78
2022/11/27 05:58:14;;;;;;;9.57;5.13;;;;;;;3.95;nan;-23926.66;5030668;28;20554;-78
2022/11/27 06:00:40;;;;;;;10.83;5.03;;;;;;;3.85;nan;-23923.94;5031121;28;20182;-79
2022/11/27 06:03:05;;;;;;;7.13;4.17;;;;;;;3.73;nan;-23920.38;5030532;28;20234;-78
2022/11/27 06:05:31;;;;;;;7.90;4.63;;;;;;;4.18;nan;-23933.22;5030669;28;20179;-79
2022/11/27 06:07:57;;;;;;;6.40;4.17;;;;;;;3.87;nan;-23924.53;5029979;28;20206;-79
2022/11/27 06:10:23;;;;;;;9.40;5.17;;;;;;;4.12;nan;-23931.34;5030367;28;20179;-78
2022/11/27 06:12:48;;;;;;;11.03;4.97;;;;;;;4.19;nan;-23933.50;5030500;28;20178;-78
2022/11/27 06:15:14;;;;;;;10.17;5.47;;;;;;;4.31;nan;-23936.91;5028743;28;20712;-79
2022/11/27 06:17:39;;;;;;;7.90;5.20;;;;;;;4.25;nan;-23935.06;5030771;28;20346;-77
2022/11/27 06:20:05;;;;;;;7.07;4.43;;;;;;;4.15;nan;-23932.22;5031489;28;20186;-79
2022/11/27 06:22:32;;;;;;;9.07;4.80;;;;;;;4.43;nan;-23940.19;5031555;28;20268;-79
2022/11/27 06:24:57;;;;;;;8.83;5.53;;;;;;;4.27;nan;-23935.78;5030082;28;20344;-79
2022/11/27 06:27:23;;;;;;;9.60;5.43;;;;;;;4.61;nan;-23945.31;5032445;28;20216;-79
2022/11/27 06:29:48;;;;;;;8.23;5.13;;;;;;;4.65;nan;-23946.44;5031358;28;20164;-80
2022/11/27 06:32:14;;;;;;;7.07;4.20;;;;;;;4.82;nan;-23951.28;5030272;28;20627;-78
2022/11/27 06:34:39;;;;;;;6.03;4.83;;;;;;;4.83;nan;-23951.56;5031447;28;20276;-81
2022/11/27 06:37:05;;;;;;;8.87;6.13;;;;;;;4.98;nan;-23955.69;5031049;28;20271;-78
2022/11/27 06:39:30;;;;;;;7.67;4.87;;;;;;;5.09;nan;-23958.81;5030347;28;20186;-79
2022/11/27 06:41:56;;;;;;;7.43;4.60;;;;;;;5.26;nan;-23963.66;5030199;28;20194;-80
2022/11/27 06:44:21;;;;;;;8.07;5.20;;;;;;;5.24;nan;-23962.94;5030551;28;20262;-79
2022/11/27 06:46:47;;;;;;;10.10;4.87;;;;;;;5.21;nan;-23962.09;5030057;28;20229;-79
2022/11/27 06:49:12;;;;;;;8.93;4.77;;;;;;;5.22;nan;-23962.53;5031988;28;20182;-79
2022/11/27 06:51:38;;;;;;;11.30;5.67;;;;;;;5.18;nan;-23961.25;5030123;28;20278;-79
2022/11/27 06:54:03;;;;;;;8.43;4.47;;;;;;;5.50;nan;-23970.22;5033476;28;20630;-79
2022/11/27 06:56:30;;;;;;;9.73;5.40;;;;;;;5.59;nan;-23972.91;5017615;28;20179;-78
2022/11/27 06:58:58;;;;;;;7.73;5.40;;;;;;;5.31;nan;-23965.09;5031755;28;20652;-78
2022/11/27 07:01:25;;;;;;;9.90;5.33;;;;;;;5.67;nan;-23975.03;5029714;28;20230;-77
2022/11/27 07:03:50;;;;;;;8.13;4.33;;;;;;;5.58;nan;-23972.63;5034183;28;20177;-79
2022/11/27 07:06:22;;;;;;;9.73;6.30;;;;;;;5.76;nan;-23977.59;5034505;28;20202;-79
2022/11/27 07:08:48;;;;;;;8.37;4.53;;;;;;;5.63;nan;-23974.03;5031863;28;20179;-77
2022/11/27 07:11:19;;;;;;;9.30;4.37;;;;;;;4.62;nan;-23945.47;5034724;28;20224;-79
2022/11/27 07:13:45;;;;;;;9.87;5.30;;;;;;;5.76;nan;-23977.75;5034932;28;20206;-78
2022/11/27 07:16:12;;;;;;;6.97;4.93;;;;;;;5.67;nan;-23975.19;5034732;28;20194;-78
2022/11/27 07:18:40;;;;;;;9.57;5.20;;;;;;;5.81;nan;-23979.00;5034793;28;20187;-77
2022/11/27 07:21:07;;;;;;;10.10;4.40;;;;;;;5.75;nan;-23977.31;5033206;28;20187;-79
2022/11/27 07:23:32;;;;;;;11.53;5.57;;;;;;;5.53;nan;-23971.19;5034771;28;20172;-79
2022/11/27 07:26:03;;;;;;;11.60;5.73;;;;;;;3.59;nan;-23916.53;5033116;28;20717;-79
2022/11/27 07:28:28;;;;;;;10.87;6.30;;;;;;;5.78;nan;-23978.16;5033148;28;20552;-78
2022/11/27 07:30:55;;;;;;;14.50;7.80;;;;;;;6.09;nan;-23986.97;5034655;28;20246;-79
2022/11/27 07:33:21;;;;;;;13.63;6.97;;;;;;;6.12;nan;-23987.69;5034327;28;20279;-77
2022/11/27 07:35:46;;;;;;;12.17;6.70;;;;;;;6.28;nan;-23992.09;5034578;28;20258;-80
2022/11/27 07:38:12;;;;;;;13.90;6.20;;;;;;;6.31;nan;-23992.94;5033856;28;20206;-77
2022/11/27 07:40:37;;;;;;;7.80;5.03;;;;;;;6.70;nan;-24004.00;5032759;28;20181;-77
2022/11/27 07:43:03;;;;;;;9.33;5.57;;;;;;;6.60;nan;-24001.31;5032728;28;20182;-77
2022/11/27 07:45:28;;;;;;;9.80;5.70;;;;;;;6.82;nan;-24007.41;5032313;28;20279;-78
2022/11/27 07:47:54;;;;;;;9.23;4.77;;;;;;;6.61;nan;-24001.59;5034122;28;20172;-78
2022/11/27 07:50:20;;;;;;;12.63;5.33;;;;;;;6.74;nan;-24005.00;5034229;28;20597;-78
2022/11/27 07:52:45;;;;;;;10.37;4.83;;;;;;;6.47;nan;-23997.63;5033622;28;20171;-78
2022/11/27 07:55:11;;;;;;;13.77;5.33;;;;;;;6.95;nan;-24011.09;5032386;28;20206;-77
2022/11/27 07:57:36;;;;;;;10.90;5.43;;;;;;;6.63;nan;-24002.03;5033939;28;20267;-78
2022/11/27 08:00:03;;;;;;;9.97;5.23;;;;;;;6.39;nan;-23995.22;5033644;28;20176;-78
2022/11/27 08:02:28;;;;;;;8.23;4.90;;;;;;;7.43;nan;-24024.44;5033478;28;20222;-77
2022/11/27 08:04:54;;;;;;;9.93;5.30;;;;;;;7.18;nan;-24017.34;5033649;28;20638;-78
2022/11/27 08:07:19;;;;;;;10.40;5.40;;;;;;;7.62;nan;-24029.81;5032537;28;20207;-76
2022/11/27 08:09:45;;;;;;;9.37;5.57;;;;;;;7.30;nan;-24020.75;5033742;28;20201;-78
2022/11/27 08:12:10;;;;;;;11.07;4.93;;;;;;;7.53;nan;-24027.28;5035369;28;20192;-76
2022/11/27 08:14:35;;;;;;;12.20;5.87;;;;;;;7.60;nan;-24029.09;5038991;28;20214;-77
2022/11/27 08:17:01;;;;;;;9.67;5.20;;;;;;;7.39;nan;-24023.44;5031366;28;20190;-78
2022/11/27 08:19:27;;;;;;;10.80;4.60;;;;;;;7.43;nan;-24024.44;5035905;28;20609;-78
2022/11/27 08:21:52;;;;;;;9.13;4.97;;;;;;;7.74;nan;-24033.06;5032821;28;20266;-77
2022/11/27 08:24:18;;;;;;;14.23;5.83;;;;;;;8.05;nan;-24041.72;5035481;28;20249;-78
2022/11/27 08:26:43;;;;;;;12.57;4.63;;;;;;;8.18;nan;-24045.53;5031974;28;20567;-78
2022/11/27 08:29:12;;;;;;;10.77;4.53;;;;;;;8.35;nan;-24050.22;5031638;28;20175;-78
2022/11/27 08:31:37;;;;;;;10.60;5.63;;;;;;;8.47;nan;-24053.63;5032835;28;20237;-78
2022/11/27 08:34:04;;;;;;;9.80;4.70;;;;;;;8.36;nan;-24050.50;5031560;28;20207;-78
2022/11/27 08:36:29;;;;;;;8.07;4.80;;;;;;;8.90;nan;-24065.50;5032946;28;20238;-77
2022/11/27 08:38:55;;;;;;;8.43;5.00;;;;;;;8.98;nan;-24067.75;5033001;28;20209;-76
2022/11/27 08:41:21;;;;;;;9.13;5.47;;;;;;;8.82;nan;-24063.53;5033101;28;20175;-77
2022/11/27 08:43:46;;;;;;;11.13;4.10;;;;;;;9.21;nan;-24074.25;5032203;28;20168;-78
2022/11/27 08:46:11;;;;;;;8.97;4.73;;;;;;;9.19;nan;-24073.84;5032571;28;20175;-78
2022/11/27 08:48:37;;;;;;;8.20;4.93;;;;;;;9.18;nan;-24073.56;5033048;28;20168;-78
2022/11/27 08:51:07;;;;;;;8.50;4.93;;;;;;;9.20;nan;-24074.13;5032132;28;20180;-78
2022/11/27 08:53:33;;;;;;;10.67;4.77;;;;;;;8.50;nan;-24054.31;5032625;28;20235;-79
2022/11/27 08:56:28;;;;;;;10.03;4.80;;;;;;;8.81;nan;-24063.25;5032921;28;20175;-79
2022/11/27 08:58:53;;;;;;;9.93;4.87;;;;;;;8.68;nan;-24059.41;5018670;28;20206;-78
2022/11/27 09:01:24;;;;;;;10.27;5.47;;;;;;;8.77;nan;-24061.97;5032728;28;20223;-78
2022/11/27 09:03:51;;;;;;;8.40;5.43;;;;;;;9.12;nan;-24071.72;5031236;28;20566;-78
2022/11/27 09:06:20;;;;;;;9.73;5.33;;;;;;;9.06;nan;-24070.16;5032631;28;20195;-77
2022/11/27 09:08:46;;;;;;;12.57;4.70;;;;;;;9.35;nan;-24078.09;5032117;28;20229;-78
2022/11/27 09:11:13;;;;;;;9.37;4.60;;;;;;;9.40;nan;-24079.50;5031349;28;20473;-78
2022/11/27 09:13:40;;;;;;;7.93;4.73;;;;;;;9.67;nan;-24087.13;5032351;28;20198;-77
2022/11/27 09:16:09;;;;;;;12.30;4.63;;;;;;;9.67;nan;-24087.13;5031905;28;20160;-78
2022/11/27 09:18:35;;;;;;;12.87;5.23;;;;;;;9.70;nan;-24088.13;5032335;28;20262;-78
2022/11/27 09:21:03;;;;;;;7.90;4.70;;;;;;;8.92;nan;-24066.06;5026627;28;20540;-78
2022/11/27 09:23:29;;;;;;;9.17;5.40;;;;;;;9.82;nan;-24091.22;5030223;28;20175;-77
2022/11/27 09:26:02;;;;;;;9.97;5.00;;;;;;;9.33;nan;-24077.66;5031793;28;20179;-78
2022/11/27 09:28:28;;;;;;;9.55;4.90;;;;;;;9.29;nan;-24076.66;5031237;28;20175;-78
2022/11/27 09:30:55;;;;;;;15.10;5.57;;;;;;;9.63;nan;-24086.00;5030163;28;20612;-77
2022/11/27 09:33:21;;;;;;;9.60;5.07;;;;;;;9.98;nan;-24095.75;5030576;28;20180;-78
2022/11/27 09:35:47;;;;;;;11.35;5.85;;;;;;;10.00;nan;-24096.44;5029935;28;20619;-79
2022/11/27 09:38:12;;;;;;;11.13;5.40;;;;;;;9.94;nan;-24094.75;5030809;28;20191;-79
2022/11/27 09:40:47;;;;;;;7.20;4.80;;;;;;;10.36;nan;-24106.47;5030350;28;20191;-79
2022/11/27 09:43:12;;;;;;;10.95;5.15;;;;;;;9.80;nan;-24090.81;5031743;28;20169;-79
2022/11/27 09:45:44;;;;;;;9.52;5.47;;;;;;;10.66;nan;-24114.66;5032291;28;20172;-79
2022/11/27 09:48:20;;;;;;;9.60;5.18;;;;;;;10.93;nan;-24122.28;5032586;28;20163;-79
2022/11/27 09:50:50;;;;;;;9.05;5.13;;;;;;;10.87;nan;-24120.72;5030524;28;20179;-79
2022/11/27 09:53:45;;;;;;;9.15;4.95;;;;;;;11.03;nan;-24125.09;5031868;28;20270;-79
2022/11/27 09:56:15;;;;;;;7.82;4.53;;;;;;;10.37;nan;-24106.75;5019854;28;20610;-79
2022/11/27 09:58:58;;;;;;;11.10;4.93;;;;;;;10.52;nan;-24111.00;5031498;28;20552;-79
2022/11/27 10:01:30;;;;;;;8.27;4.18;;;;;;;10.72;nan;-24116.34;5029604;28;20682;-81
2022/11/27 10:03:55;;;;;;;8.00;5.25;;;;;;;10.53;nan;-24111.28;5031342;28;20226;-78
2022/11/27 10:06:54;;;;;;;8.65;4.78;;;;;;;10.51;nan;-24110.72;5030508;28;20215;-79
2022/11/27 10:09:55;;;;;;;10.30;5.50;;;;;;;10.64;nan;-24114.25;5029901;28;20638;-80
2022/11/27 10:12:24;;;;;;;9.63;5.63;;;;;;;10.45;nan;-24108.88;5011827;28;20252;-81
2022/11/27 10:15:17;;;;;;;9.52;5.22;;;;;;;10.78;nan;-24118.03;5031616;28;20238;-79
2022/11/27 10:17:51;;;;;;;12.57;5.68;;;;;;;10.90;nan;-24121.44;5030295;28;20208;-78
2022/11/27 10:20:38;;;;;;;13.52;5.97;;;;;;;11.14;nan;-24128.06;5031339;28;20190;-80
2022/11/27 10:23:09;;;;;;;9.27;5.18;;;;;;;10.85;nan;-24120.03;5031083;28;20166;-80
2022/11/27 10:25:48;;;;;;;10.15;4.97;;;;;;;11.29;nan;-24132.28;5029882;28;20218;-80
2022/11/27 10:28:16;;;;;;;8.90;5.13;;;;;;;11.11;nan;-24127.22;5031915;28;20210;-79
2022/11/27 10:31:10;;;;;;;8.77;4.97;;;;;;;11.24;nan;-24131.03;5029578;28;20187;-79
2022/11/27 10:33:52;;;;;;;9.50;5.00;;;;;;;11.47;nan;-24137.34;5014755;28;20291;-79
2022/11/27 10:36:42;;;;;;;9.98;5.03;;;;;;;11.47;nan;-24137.50;5030125;28;20201;-79
2022/11/27 10:39:35;;;;;;;10.20;4.72;;;;;;;11.38;nan;-24134.97;5032934;28;20206;-80
2022/11/27 10:42:32;;;;;;;9.50;4.72;;;;;;;11.49;nan;-24138.06;5025506;28;20183;-79
2022/11/27 10:45:07;;;;;;;10.70;5.72;;;;;;;11.39;nan;-24135.09;4993525;28;20191;-78
2022/11/27 10:47:33;;;;;;;10.23;4.72;;;;;;;11.43;nan;-24136.38;5035313;28;20253;-77
2022/11/27 10:49:58;;;;;;;9.00;4.93;;;;;;;11.35;nan;-24134.13;5035112;28;20290;-77
2022/11/27 10:52:24;;;;;;;10.05;5.03;;;;;;;10.09;nan;-24098.84;5034675;28;20179;-79
2022/11/27 10:54:56;;;;;;;8.93;5.25;;;;;;;11.67;nan;-24143.00;5034682;28;20655;-78
2022/11/27 10:57:27;;;;;;;11.60;5.38;;;;;;;11.89;nan;-24149.19;5039730;28;20274;-78
2022/11/27 11:00:18;;;;;;;10.48;4.53;;;;;;;12.09;nan;-24154.69;5015807;28;20199;-78
2022/11/27 11:02:45;;;;;;;9.52;4.82;;;;;;;12.15;nan;-24156.38;5034889;28;20230;-78
2022/11/27 11:05:10;;;;;;;9.98;4.28;;;;;;;12.37;nan;-24162.56;5035127;28;20666;-77
2022/11/27 11:07:35;;;;;;;9.68;4.38;;;;;;;12.32;nan;-24161.16;5033440;28;20218;-78
2022/11/27 11:10:01;;;;;;;10.98;4.65;;;;;;;12.24;nan;-24158.91;5032598;28;20210;-78
2022/11/27 11:12:26;;;;;;;9.32;4.65;;;;;;;12.40;nan;-24163.28;5035098;28;20179;-77
2022/11/27 11:14:59;;;;;;;8.27;4.60;;;;;;;12.67;nan;-24170.72;5033347;28;20736;-77
2022/11/27 11:17:35;;;;;;;7.50;3.88;;;;;;;12.59;nan;-24168.63;5033909;28;20690;-77
2022/11/27 11:20:14;;;;;;;8.32;4.10;;;;;;;12.55;nan;-24167.50;5034782;28;20179;-76
2022/11/27 11:22:46;;;;;;;9.95;4.65;;;;;;;12.53;nan;-24166.78;5033790;28;20272;-77
2022/11/27 11:25:17;;;;;;;6.70;3.53;;;;;;;12.01;nan;-24152.28;5034171;28;20623;-78
2022/11/27 11:27:43;;;;;;;8.20;3.90;;;;;;;12.13;nan;-24155.81;5034275;28;20168;-77
2022/11/27 11:30:25;;;;;;;8.50;4.47;;;;;;;12.41;nan;-24163.56;5034525;28;20174;-78
2022/11/27 11:32:58;;;;;;;8.45;4.53;;;;;;;11.99;nan;-24151.88;5033057;28;20179;-78
2022/11/27 11:35:31;;;;;;;9.50;4.65;;;;;;;11.86;nan;-24148.34;5034271;28;20326;-78
2022/11/27 11:37:58;;;;;;;12.23;4.45;;;;;;;11.64;nan;-24142.16;5034258;28;20690;-79
2022/11/27 11:40:32;;;;;;;7.40;4.15;;;;;;;11.65;nan;-24142.28;5032931;28;20194;-80
2022/11/27 11:43:01;;;;;;;8.35;4.50;;;;;;;11.71;nan;-24143.97;5032955;28;20240;-80
2022/11/27 11:45:31;;;;;;;9.30;4.68;;;;;;;11.77;nan;-24145.81;5033972;28;20650;-78
2022/11/27 11:47:59;;;;;;;6.75;4.38;;;;;;;11.80;nan;-24146.53;5034483;28;20538;-78
2022/11/27 11:51:00;;;;;;;9.27;5.05;;;;;;;12.49;nan;-24165.81;5031314;28;20217;-78
2022/11/27 11:53:36;;;;;;;8.27;3.90;;;;;;;12.57;nan;-24168.06;5033803;28;20188;-77
2022/11/27 11:56:26;;;;;;;6.95;3.85;;;;;;;12.64;nan;-24170.03;5020952;28;20182;-77
2022/11/27 11:58:58;;;;;;;7.28;3.88;;;;;;;12.59;nan;-24168.47;5033474;28;20170;-76